createdAt,value
2023-02-27T00:00:49.093Z,-2.93
2023-02-27T00:04:00.559Z,-2.88
2023-02-27T00:07:08.855Z,-2.94
2023-02-27T00:10:17.140Z,-2.94
2023-02-27T00:13:25.298Z,-2.93
2023-02-27T00:16:35.104Z,-3.00
2023-02-27T00:19:43.322Z,-2.98
2023-02-27T00:22:51.962Z,-2.89
2023-02-27T00:26:00.998Z,-2.93
2023-02-27T00:29:09.260Z,-2.89
2023-02-27T00:32:19.226Z,-2.96
2023-02-27T00:35:28.964Z,-3.03
2023-02-27T00:38:37.393Z,-3.03
2023-02-27T00:41:45.676Z,-3.12
2023-02-27T00:44:53.853Z,-3.09
2023-02-27T00:48:03.566Z,-3.05
2023-02-27T00:51:11.784Z,-2.98
2023-02-27T00:54:20.087Z,-2.95
2023-02-27T00:57:29.100Z,-2.93
2023-02-27T01:00:37.472Z,-3.03
2023-02-27T01:03:47.055Z,-2.98
2023-02-27T01:06:55.273Z,-3.08
2023-02-27T01:10:03.457Z,-3.12
2023-02-27T01:13:11.652Z,-3.07
2023-02-27T01:16:19.858Z,-3.00
2023-02-27T01:19:29.452Z,-3.04
2023-02-27T01:22:37.749Z,-3.03
2023-02-27T01:25:47.612Z,-3.01
2023-02-27T01:28:56.105Z,-3.04
2023-02-27T01:32:04.415Z,-3.11
2023-02-27T01:35:14.265Z,-3.22
2023-02-27T01:38:22.829Z,-3.30
2023-02-27T01:41:31.628Z,-3.28
2023-02-27T01:45:21.926Z,-3.37
2023-02-27T01:48:35.892Z,-3.36
2023-02-27T01:51:50.328Z,-3.24
2023-02-27T01:54:59.700Z,-3.27
2023-02-27T01:58:12.416Z,-3.25
2023-02-27T02:01:23.370Z,-3.30
2023-02-27T02:04:36.285Z,-3.32
2023-02-27T02:07:46.839Z,-3.30
2023-02-27T02:10:57.766Z,-3.23
2023-02-27T02:14:10.703Z,-3.20
2023-02-27T02:17:40.154Z,-3.11
2023-02-27T02:21:35.168Z,-3.23
2023-02-27T02:25:48.270Z,-3.19
2023-02-27T02:29:53.483Z,-3.22
2023-02-27T02:33:51.539Z,-3.19
2023-02-27T02:37:45.084Z,-3.17
2023-02-27T02:41:05.490Z,-3.10
2023-02-27T02:44:25.544Z,-3.08
2023-02-27T02:47:47.785Z,-2.98
2023-02-27T02:51:09.169Z,-2.94
2023-02-27T02:54:25.118Z,-2.93
2023-02-27T02:57:44.198Z,-2.94
2023-02-27T03:00:59.318Z,-2.99
2023-02-27T03:04:15.258Z,-3.00
2023-02-27T03:07:31.794Z,-2.97
2023-02-27T03:10:50.234Z,-2.95
2023-02-27T03:14:10.839Z,-2.89
2023-02-27T03:17:30.289Z,-2.82
2023-02-27T03:20:44.418Z,-2.79
2023-02-27T03:23:58.917Z,-2.72
2023-02-27T03:27:10.993Z,-2.76
2023-02-27T03:30:30.525Z,-2.70
2023-02-27T03:33:49.315Z,-2.66
2023-02-27T03:37:07.580Z,-2.72
2023-02-27T03:40:31.675Z,-2.66
2023-02-27T03:43:53.790Z,-2.68
2023-02-27T03:47:04.486Z,-2.73
2023-02-27T03:50:13.818Z,-2.76
2023-02-27T03:53:33.308Z,-2.70
2023-02-27T03:56:50.003Z,-2.72
2023-02-27T03:59:59.258Z,-2.65
2023-02-27T04:03:09.495Z,-2.68
2023-02-27T04:06:41.047Z,-2.67
2023-02-27T04:10:14.175Z,-2.66
2023-02-27T04:13:52.364Z,-2.64
2023-02-27T04:17:22.032Z,-2.64
2023-02-27T04:20:46.164Z,-2.63
2023-02-27T04:24:06.415Z,-2.60
2023-02-27T04:27:29.924Z,-2.59
2023-02-27T04:30:50.102Z,-2.58
2023-02-27T04:34:06.679Z,-2.55
2023-02-27T04:37:25.831Z,-2.59
2023-02-27T04:40:46.311Z,-2.60
2023-02-27T04:43:57.437Z,-2.65
2023-02-27T04:47:10.544Z,-2.65
2023-02-27T04:50:25.915Z,-2.67
2023-02-27T04:53:44.145Z,-2.74
2023-02-27T04:56:58.715Z,-2.80
2023-02-27T05:00:13.944Z,-2.86
2023-02-27T05:03:30.303Z,-2.88
2023-02-27T05:06:42.205Z,-2.87
2023-02-27T05:09:59.680Z,-2.85
2023-02-27T05:13:16.448Z,-2.88
2023-02-27T05:16:33.114Z,-2.90
2023-02-27T05:19:44.165Z,-2.91
2023-02-27T05:23:03.325Z,-2.95
2023-02-27T05:26:20.915Z,-2.91
2023-02-27T05:29:39.935Z,-2.95
2023-02-27T05:32:56.628Z,-2.97
2023-02-27T05:36:12.334Z,-2.90
2023-02-27T05:39:25.086Z,-2.96
2023-02-27T05:42:41.826Z,-2.96
2023-02-27T05:45:57.420Z,-2.97
2023-02-27T05:49:12.818Z,-2.94
2023-02-27T05:52:26.108Z,-2.99
2023-02-27T05:55:42.209Z,-3.05
2023-02-27T05:58:57.476Z,-3.00
2023-02-27T06:02:05.877Z,-3.03
2023-02-27T06:05:17.001Z,-3.01
2023-02-27T06:08:26.079Z,-3.02
2023-02-27T06:11:34.308Z,-2.95
2023-02-27T06:14:43.841Z,-2.95
2023-02-27T06:17:52.121Z,-2.96
2023-02-27T06:21:00.248Z,-3.01
2023-02-27T06:24:08.466Z,-2.96
2023-02-27T06:27:16.674Z,-2.91
2023-02-27T06:30:27.115Z,-2.92
2023-02-27T06:37:25.410Z,-2.90
2023-02-27T06:40:33.729Z,-2.89
2023-02-27T06:43:42.031Z,-2.82
2023-02-27T06:46:51.447Z,-2.83
2023-02-27T06:49:59.775Z,-2.75
2023-02-27T06:53:08.154Z,-2.74
2023-02-27T06:56:16.416Z,-2.67
2023-02-27T06:59:24.614Z,-2.61
2023-02-27T07:02:34.326Z,-2.51
2023-02-27T07:05:43.268Z,-2.41
2023-02-27T07:08:54.240Z,-2.30
2023-02-27T07:12:11.121Z,-2.28
2023-02-27T07:15:19.672Z,-2.11
2023-02-27T07:18:29.171Z,-2.03
2023-02-27T07:21:37.288Z,-1.88
2023-02-27T07:24:45.415Z,-1.85
2023-02-27T07:27:53.508Z,-1.77
2023-02-27T07:31:03.323Z,-1.69
2023-02-27T07:34:13.763Z,-1.55
2023-02-27T07:37:21.938Z,-1.61
2023-02-27T07:40:30.278Z,-1.50
2023-02-27T07:43:38.707Z,-1.33
2023-02-27T07:46:47.496Z,-1.32
2023-02-27T07:53:47.932Z,-1.15
2023-02-27T07:56:56.800Z,-1.09
2023-02-27T08:00:11.547Z,-1.18
2023-02-27T08:03:36.794Z,-1.03
2023-02-27T08:06:45.651Z,-1.02
2023-02-27T08:09:55.333Z,-1.23
2023-02-27T08:13:03.897Z,-1.17
2023-02-27T08:16:12.730Z,-1.26
2023-02-27T08:19:21.097Z,-1.43
2023-02-27T08:22:29.511Z,-1.31
2023-02-27T08:25:40.589Z,-1.11
2023-02-27T08:28:49.276Z,-1.26
2023-02-27T08:31:58.725Z,-1.14
2023-02-27T08:35:08.306Z,-1.01
2023-02-27T08:38:16.615Z,-0.95
2023-02-27T08:41:26.456Z,-0.98
2023-02-27T08:44:34.697Z,-0.95
2023-02-27T08:47:45.219Z,-0.96
2023-02-27T08:50:56.175Z,-0.93
2023-02-27T08:54:06.223Z,-0.75
2023-02-27T08:57:19.800Z,-0.77
2023-02-27T09:00:29.050Z,-0.54
2023-02-27T09:03:37.466Z,-0.50
2023-02-27T09:06:45.712Z,-0.28
2023-02-27T09:09:56.735Z,-0.40
2023-02-27T09:13:06.439Z,-0.57
2023-02-27T09:16:14.683Z,-0.65
2023-02-27T09:19:23.052Z,-0.41
2023-02-27T09:22:31.926Z,-0.35
2023-02-27T09:25:40.230Z,-0.53
2023-02-27T09:28:50.422Z,-0.60
2023-02-27T09:31:58.902Z,-0.29
2023-02-27T09:35:09.369Z,-0.45
2023-02-27T09:38:17.692Z,-0.48
2023-02-27T09:41:47.296Z,-0.40
2023-02-27T09:45:00.205Z,-0.46
2023-02-27T09:48:32.822Z,-0.10
2023-02-27T09:51:41.465Z,-0.28
2023-02-27T09:54:50.779Z,-0.16
2023-02-27T09:58:07.765Z,0.06
2023-02-27T10:01:27.082Z,-0.16
2023-02-27T10:04:46.053Z,-0.10
2023-02-27T10:08:09.930Z,0.13
2023-02-27T10:11:27.618Z,0.51
2023-02-27T10:14:44.571Z,0.17
2023-02-27T10:18:00.041Z,0.38
2023-02-27T10:21:15.073Z,0.31
2023-02-27T10:24:29.475Z,0.06
2023-02-27T10:27:39.875Z,-0.01
2023-02-27T10:30:52.249Z,0.02
2023-02-27T10:34:04.617Z,0.29
2023-02-27T10:37:19.727Z,0.24
2023-02-27T10:40:30.001Z,0.10
2023-02-27T10:43:38.810Z,-0.19
2023-02-27T10:46:51.900Z,0.01
2023-02-27T10:50:01.863Z,-0.07
2023-02-27T10:53:21.847Z,-0.18
2023-02-27T10:56:32.947Z,0.02
2023-02-27T10:59:43.294Z,0.33
2023-02-27T11:02:53.340Z,-0.09
2023-02-27T11:06:08.274Z,0.14
2023-02-27T11:09:24.336Z,0.37
2023-02-27T11:12:35.061Z,0.24
2023-02-27T11:15:43.695Z,0.09
2023-02-27T11:18:54.348Z,-0.09
2023-02-27T11:22:09.337Z,0.13
2023-02-27T11:25:25.868Z,-0.13
2023-02-27T11:28:34.381Z,0.24
2023-02-27T11:31:53.403Z,0.18
2023-02-27T11:35:01.668Z,0.08
2023-02-27T11:38:25.856Z,-0.10
2023-02-27T11:41:35.970Z,0.14
2023-02-27T11:44:57.823Z,0.47
2023-02-27T11:48:19.211Z,0.30
2023-02-27T11:51:47.937Z,0.01
2023-02-27T11:55:03.250Z,0.09
2023-02-27T11:58:18.340Z,0.04
2023-02-27T12:01:34.221Z,-0.15
2023-02-27T12:04:53.510Z,-0.13
2023-02-27T12:08:08.754Z,0.02
2023-02-27T12:11:29.104Z,0.12
2023-02-27T12:14:50.126Z,0.25
2023-02-27T12:18:14.376Z,0.55
2023-02-27T12:21:28.149Z,0.33
2023-02-27T12:24:45.347Z,0.58
2023-02-27T12:28:04.612Z,0.23
2023-02-27T12:31:48.313Z,0.14
2023-02-27T12:35:02.242Z,0.04
2023-02-27T12:38:14.785Z,0.27
2023-02-27T12:41:45.005Z,0.63
2023-02-27T12:45:46.046Z,0.90
2023-02-27T12:49:26.203Z,0.30
2023-02-27T12:52:52.212Z,-0.05
2023-02-27T12:56:12.636Z,0.03
2023-02-27T13:00:08.076Z,-0.15
2023-02-27T13:03:25.388Z,0.02
2023-02-27T13:06:46.632Z,0.19
2023-02-27T13:10:01.199Z,-0.03
2023-02-27T13:13:21.982Z,-0.26
2023-02-27T13:16:37.614Z,-0.41
2023-02-27T13:19:54.116Z,-0.10
2023-02-27T13:23:19.299Z,0.16
2023-02-27T13:26:34.414Z,-0.02
2023-02-27T13:29:50.963Z,0.02
2023-02-27T13:33:18.586Z,0.07
2023-02-27T13:36:34.397Z,-0.40
2023-02-27T13:40:01.244Z,-0.64
2023-02-27T13:43:46.464Z,-0.75
2023-02-27T13:47:50.032Z,-0.57
2023-02-27T13:50:58.682Z,-0.62
2023-02-27T13:54:24.084Z,-0.67
2023-02-27T13:57:34.885Z,-0.68
2023-02-27T14:00:43.594Z,-0.72
2023-02-27T14:04:03.476Z,-0.44
2023-02-27T14:07:18.640Z,-0.30
2023-02-27T14:10:31.297Z,-0.15
2023-02-27T14:14:01.014Z,-0.38
2023-02-27T14:17:13.302Z,-0.33
2023-02-27T14:20:52.823Z,-0.29
2023-02-27T14:24:01.356Z,-0.51
2023-02-27T14:27:24.588Z,-0.36
2023-02-27T14:30:43.325Z,-0.25
2023-02-27T14:33:55.944Z,0.16
2023-02-27T14:37:14.589Z,0.07
2023-02-27T14:40:30.419Z,0.16
2023-02-27T14:43:46.584Z,-0.09
2023-02-27T14:46:57.840Z,-0.19
2023-02-27T14:50:23.083Z,-0.12
2023-02-27T14:53:33.018Z,-0.11
2023-02-27T14:56:43.195Z,-0.08
2023-02-27T14:59:53.945Z,-0.35
2023-02-27T15:03:12.189Z,-0.44
2023-02-27T15:06:26.045Z,-0.66
2023-02-27T15:09:43.038Z,-0.32
2023-02-27T15:12:52.297Z,-0.38
2023-02-27T15:16:38.920Z,-0.44
2023-02-27T15:19:50.765Z,-0.51
2023-02-27T15:22:59.854Z,-0.52
2023-02-27T15:26:15.054Z,-0.63
2023-02-27T15:29:27.538Z,-0.71
2023-02-27T15:32:40.831Z,-0.65
2023-02-27T15:35:49.348Z,-0.75
2023-02-27T15:39:07.601Z,-0.63
2023-02-27T15:42:17.513Z,-0.86
2023-02-27T15:45:31.877Z,-1.20
2023-02-27T15:48:40.467Z,-1.07
2023-02-27T15:51:58.879Z,-1.06
2023-02-27T15:55:15.380Z,-1.05
2023-02-27T15:58:28.666Z,-1.07
2023-02-27T16:01:36.975Z,-0.96
2023-02-27T16:04:48.646Z,-1.21
2023-02-27T16:07:57.541Z,-1.24
2023-02-27T16:11:07.169Z,-1.22
2023-02-27T16:14:43.308Z,-1.40
2023-02-27T16:18:01.270Z,-1.42
2023-02-27T16:21:14.638Z,-1.42
2023-02-27T16:24:33.518Z,-1.52
2023-02-27T16:27:50.389Z,-1.41
2023-02-27T16:31:00.845Z,-1.36
2023-02-27T16:34:26.097Z,-1.62
2023-02-27T16:37:39.983Z,-1.65
2023-02-27T16:40:48.377Z,-1.66
2023-02-27T16:43:56.825Z,-1.63
2023-02-27T16:47:06.576Z,-1.65
2023-02-27T16:50:23.149Z,-1.74
2023-02-27T16:53:31.446Z,-1.79
2023-02-27T16:56:40.681Z,-1.87
2023-02-27T16:59:49.482Z,-1.94
2023-02-27T17:02:59.142Z,-1.99
2023-02-27T17:06:08.562Z,-2.04
2023-02-27T17:09:16.861Z,-2.10
2023-02-27T17:12:25.725Z,-2.12
2023-02-27T17:15:34.438Z,-2.16
2023-02-27T17:18:44.028Z,-2.19
2023-02-27T17:21:52.254Z,-2.22
2023-02-27T17:25:00.406Z,-2.21
2023-02-27T17:28:08.816Z,-2.26
2023-02-27T17:31:22.737Z,-2.25
2023-02-27T17:34:32.670Z,-2.31
2023-02-27T17:37:40.970Z,-2.34
2023-02-27T17:40:49.222Z,-2.35
2023-02-27T17:43:58.897Z,-2.37
2023-02-27T17:47:07.273Z,-2.36
2023-02-27T17:50:18.262Z,-2.43
2023-02-27T17:53:27.171Z,-2.37
2023-02-27T17:56:37.044Z,-2.32
2023-02-27T17:59:45.430Z,-2.25
2023-02-27T18:02:56.404Z,-2.26
2023-02-27T18:06:07.948Z,-2.24
2023-02-27T18:09:16.400Z,-2.34
2023-02-27T18:12:25.403Z,-2.46
2023-02-27T18:15:33.569Z,-2.44
2023-02-27T18:18:44.926Z,-2.38
2023-02-27T18:21:54.628Z,-2.35
2023-02-27T18:25:03.009Z,-2.35
2023-02-27T18:28:12.905Z,-2.45
2023-02-27T18:31:23.264Z,-2.48
2023-02-27T18:34:31.623Z,-2.45
2023-02-27T18:37:41.798Z,-2.45
2023-02-27T18:40:50.209Z,-2.45
2023-02-27T18:43:59.730Z,-2.53
2023-02-27T18:47:09.615Z,-2.52
2023-02-27T18:50:18.834Z,-2.59
2023-02-27T18:53:28.849Z,-2.60
2023-02-27T18:56:37.130Z,-2.65
2023-02-27T18:59:47.524Z,-2.66
2023-02-27T19:02:56.581Z,-2.68
2023-02-27T19:06:05.620Z,-2.67
2023-02-27T19:09:17.022Z,-2.85
2023-02-27T19:12:25.183Z,-2.78
2023-02-27T19:15:35.299Z,-2.85
2023-02-27T19:18:43.604Z,-2.79
2023-02-27T19:21:52.292Z,-2.81
2023-02-27T19:25:02.704Z,-2.86
2023-02-27T19:28:12.796Z,-2.84
2023-02-27T19:31:24.483Z,-2.84
2023-02-27T19:34:33.918Z,-2.88
2023-02-27T19:37:43.392Z,-2.88
2023-02-27T19:40:53.554Z,-2.88
2023-02-27T19:44:01.873Z,-2.97
2023-02-27T19:47:10.299Z,-3.02
2023-02-27T19:50:19.196Z,-3.06
2023-02-27T19:53:28.071Z,-3.04
2023-02-27T19:56:37.639Z,-3.04
2023-02-27T19:59:46.794Z,-3.02
2023-02-27T20:02:55.399Z,-3.04
2023-02-27T20:06:06.294Z,-3.06
2023-02-27T20:09:17.256Z,-2.98
2023-02-27T20:12:28.561Z,-2.98
2023-02-27T20:15:36.870Z,-2.99
2023-02-27T20:18:45.792Z,-2.90
2023-02-27T20:21:55.443Z,-2.90
2023-02-27T20:25:04.293Z,-2.96
2023-02-27T20:28:14.201Z,-3.00
2023-02-27T20:31:27.553Z,-2.94
2023-02-27T20:34:35.932Z,-2.91
2023-02-27T20:37:44.583Z,-2.93
2023-02-27T20:40:58.677Z,-2.96
2023-02-27T20:44:11.518Z,-3.00
2023-02-27T20:47:20.088Z,-2.95
2023-02-27T20:50:28.678Z,-2.95
2023-02-27T20:53:38.861Z,-3.01
2023-02-27T20:56:51.840Z,-3.08
2023-02-27T21:00:01.851Z,-3.04
2023-02-27T21:03:10.898Z,-3.08
2023-02-27T21:06:20.709Z,-3.05
2023-02-27T21:09:29.206Z,-3.07
2023-02-27T21:12:37.685Z,-3.14
2023-02-27T21:15:47.987Z,-3.11
2023-02-27T21:18:57.439Z,-3.10
2023-02-27T21:22:11.102Z,-3.14
2023-02-27T21:25:19.781Z,-3.10
2023-02-27T21:28:28.186Z,-3.13
2023-02-27T21:31:40.442Z,-3.15
2023-02-27T21:34:48.715Z,-3.15
2023-02-27T21:37:56.924Z,-3.18
2023-02-27T21:41:09.836Z,-3.20
2023-02-27T21:44:24.967Z,-3.25
2023-02-27T21:47:35.076Z,-3.18
2023-02-27T21:50:43.166Z,-3.19
2023-02-27T21:53:57.126Z,-3.17
2023-02-27T21:57:06.030Z,-3.14
2023-02-27T22:00:16.028Z,-3.16
2023-02-27T22:03:34.839Z,-3.14
2023-02-27T22:06:43.242Z,-3.09
2023-02-27T22:09:51.649Z,-3.07
2023-02-27T22:13:00.089Z,-3.10
2023-02-27T22:16:12.810Z,-3.04
2023-02-27T22:19:23.421Z,-3.06
2023-02-27T22:22:31.880Z,-3.04
2023-02-27T22:25:41.025Z,-3.05
2023-02-27T22:28:49.692Z,-3.03
2023-02-27T22:31:58.107Z,-3.12
2023-02-27T22:35:09.533Z,-3.22
2023-02-27T22:38:18.142Z,-3.16
2023-02-27T22:41:30.649Z,-3.19
2023-02-27T22:44:39.511Z,-3.14
2023-02-27T22:47:47.709Z,-3.13
2023-02-27T22:51:03.538Z,-3.18
2023-02-27T22:54:15.572Z,-3.18
2023-02-27T22:57:24.804Z,-3.27
2023-02-27T23:00:33.577Z,-3.28
2023-02-27T23:03:43.880Z,-3.39
2023-02-27T23:06:57.008Z,-3.43
2023-02-27T23:10:09.825Z,-3.64
2023-02-27T23:13:18.041Z,-3.66
2023-02-27T23:16:26.642Z,-3.66
2023-02-27T23:19:36.469Z,-3.80
2023-02-27T23:22:46.593Z,-3.72
2023-02-27T23:25:55.008Z,-3.81
2023-02-27T23:29:03.246Z,-3.87
2023-02-27T23:32:13.449Z,-3.96
2023-02-27T23:35:22.910Z,-3.98
2023-02-27T23:38:32.781Z,-4.04
2023-02-27T23:41:41.413Z,-4.09
2023-02-27T23:45:07.934Z,-4.25
2023-02-27T23:48:16.146Z,-4.06
2023-02-27T23:51:24.466Z,-4.12
2023-02-27T23:54:34.930Z,-4.24
2023-02-27T23:57:43.602Z,-4.28
